sensor_id;sensor_type;location;lat;lon;timestamp;pressure;altitude;pressure_sealevel;temperature;humidity
61554;BME280;47425;51.976;5.326;2023-01-31T00:00:28;102296.66;;;13.63;45.47
61554;BME280;47425;51.976;5.326;2023-01-31T00:02:54;102297.75;;;13.33;43.96
61554;BME280;47425;51.976;5.326;2023-01-31T00:05:24;102304.94;;;13.10;46.25
61554;BME280;47425;51.976;5.326;2023-01-31T00:07:51;102301.41;;;13.12;46.45
61554;BME280;47425;51.976;5.326;2023-01-31T00:10:18;102311.09;;;13.09;47.04
61554;BME280;47425;51.976;5.326;2023-01-31T00:12:44;102302.28;;;13.15;46.56
61554;BME280;47425;51.976;5.326;2023-01-31T00:15:12;102300.72;;;12.91;46.73
61554;BME280;47425;51.976;5.326;2023-01-31T00:17:41;102298.91;;;12.93;47.25
61554;BME280;47425;51.976;5.326;2023-01-31T00:20:08;102301.47;;;13.04;47.41
61554;BME280;47425;51.976;5.326;2023-01-31T00:22:38;102299.69;;;13.12;46.71
61554;BME280;47425;51.976;5.326;2023-01-31T00:25:05;102303.97;;;13.22;46.56
61554;BME280;47425;51.976;5.326;2023-01-31T00:27:32;102301.31;;;13.27;46.75
61554;BME280;47425;51.976;5.326;2023-01-31T00:29:59;102290.75;;;13.32;44.78
61554;BME280;47425;51.976;5.326;2023-01-31T00:32:26;102296.91;;;13.27;46.75
61554;BME280;47425;51.976;5.326;2023-01-31T00:34:54;102290.66;;;13.44;46.87
61554;BME280;47425;51.976;5.326;2023-01-31T00:37:21;102262.56;;;13.48;46.33
61554;BME280;47425;51.976;5.326;2023-01-31T00:39:49;102279.16;;;13.56;46.27
61554;BME280;47425;51.976;5.326;2023-01-31T00:42:17;102264.22;;;13.58;45.48
61554;BME280;47425;51.976;5.326;2023-01-31T00:44:43;102264.03;;;13.76;46.15
61554;BME280;47425;51.976;5.326;2023-01-31T00:47:10;102242.06;;;13.77;45.63
61554;BME280;47425;51.976;5.326;2023-01-31T00:49:38;102257.50;;;14.08;45.39
61554;BME280;47425;51.976;5.326;2023-01-31T00:52:05;102252.88;;;14.29;45.22
61554;BME280;47425;51.976;5.326;2023-01-31T00:54:31;102244.72;;;14.44;44.64
61554;BME280;47425;51.976;5.326;2023-01-31T00:56:59;102242.78;;;14.59;44.29
61554;BME280;47425;51.976;5.326;2023-01-31T00:59:27;102254.91;;;14.72;44.39
61554;BME280;47425;51.976;5.326;2023-01-31T01:01:54;102250.41;;;14.79;44.14
61554;BME280;47425;51.976;5.326;2023-01-31T01:04:20;102251.16;;;14.87;43.64
61554;BME280;47425;51.976;5.326;2023-01-31T01:06:47;102243.16;;;14.93;43.55
61554;BME280;47425;51.976;5.326;2023-01-31T01:09:15;102234.41;;;14.90;43.17
61554;BME280;47425;51.976;5.326;2023-01-31T01:11:42;102252.66;;;15.05;43.52
61554;BME280;47425;51.976;5.326;2023-01-31T01:14:10;102250.84;;;15.07;42.87
61554;BME280;47425;51.976;5.326;2023-01-31T01:16:40;102247.28;;;15.10;43.29
61554;BME280;47425;51.976;5.326;2023-01-31T01:19:11;102241.97;;;15.12;42.98
61554;BME280;47425;51.976;5.326;2023-01-31T01:21:38;102239.28;;;15.16;43.20
61554;BME280;47425;51.976;5.326;2023-01-31T01:24:10;102237.59;;;15.12;42.75
61554;BME280;47425;51.976;5.326;2023-01-31T01:26:53;102222.66;;;15.11;42.71
61554;BME280;47425;51.976;5.326;2023-01-31T01:29:41;102227.84;;;15.14;42.34
61554;BME280;47425;51.976;5.326;2023-01-31T01:32:08;102231.44;;;15.10;42.70
61554;BME280;47425;51.976;5.326;2023-01-31T01:34:35;102232.63;;;14.93;42.79
61554;BME280;47425;51.976;5.326;2023-01-31T01:37:06;102228.25;;;14.91;43.21
61554;BME280;47425;51.976;5.326;2023-01-31T01:39:37;102222.91;;;14.94;43.35
61554;BME280;47425;51.976;5.326;2023-01-31T01:42:04;102226.31;;;15.01;43.34
61554;BME280;47425;51.976;5.326;2023-01-31T01:44:46;102224.56;;;15.00;42.92
61554;BME280;47425;51.976;5.326;2023-01-31T01:47:19;102220.19;;;15.00;43.04
61554;BME280;47425;51.976;5.326;2023-01-31T01:49:50;102232.34;;;15.09;43.00
61554;BME280;47425;51.976;5.326;2023-01-31T01:52:21;102229.63;;;15.14;42.90
61554;BME280;47425;51.976;5.326;2023-01-31T01:54:52;102228.69;;;15.18;42.38
61554;BME280;47425;51.976;5.326;2023-01-31T01:57:22;102219.09;;;15.14;42.89
61554;BME280;47425;51.976;5.326;2023-01-31T02:00:11;102230.53;;;15.13;42.66
61554;BME280;47425;51.976;5.326;2023-01-31T02:02:43;102228.72;;;15.15;42.74
61554;BME280;47425;51.976;5.326;2023-01-31T02:05:16;102233.16;;;15.13;42.58
61554;BME280;47425;51.976;5.326;2023-01-31T02:07:46;102239.38;;;15.10;42.31
61554;BME280;47425;51.976;5.326;2023-01-31T02:10:16;102216.75;;;14.95;43.00
61554;BME280;47425;51.976;5.326;2023-01-31T02:12:45;102240.31;;;15.06;42.39
61554;BME280;47425;51.976;5.326;2023-01-31T02:15:15;102237.88;;;14.93;42.85
61554;BME280;47425;51.976;5.326;2023-01-31T02:17:42;102241.38;;;14.94;42.51
61554;BME280;47425;51.976;5.326;2023-01-31T02:20:27;102241.47;;;14.89;42.69
61554;BME280;47425;51.976;5.326;2023-01-31T02:23:22;102238.91;;;14.85;42.91
61554;BME280;47425;51.976;5.326;2023-01-31T02:26:12;102229.91;;;14.97;43.11
61554;BME280;47425;51.976;5.326;2023-01-31T02:29:16;102237.63;;;15.09;42.60
61554;BME280;47425;51.976;5.326;2023-01-31T02:35:08;102202.88;;;14.82;42.81
61554;BME280;47425;51.976;5.326;2023-01-31T02:37:43;102198.59;;;14.76;42.90
61554;BME280;47425;51.976;5.326;2023-01-31T02:40:20;102226.59;;;14.85;42.85
61554;BME280;47425;51.976;5.326;2023-01-31T02:42:56;102224.94;;;14.78;42.87
61554;BME280;47425;51.976;5.326;2023-01-31T02:45:34;102220.50;;;14.82;43.21
61554;BME280;47425;51.976;5.326;2023-01-31T02:48:12;102217.91;;;14.77;42.91
61554;BME280;47425;51.976;5.326;2023-01-31T02:50:58;102211.13;;;14.59;43.45
61554;BME280;47425;51.976;5.326;2023-01-31T02:53:31;102210.19;;;14.68;43.23
61554;BME280;47425;51.976;5.326;2023-01-31T02:56:03;102211.78;;;14.76;43.21
61554;BME280;47425;51.976;5.326;2023-01-31T02:58:48;102212.63;;;14.79;43.05
61554;BME280;47425;51.976;5.326;2023-01-31T03:01:21;102214.34;;;14.83;43.27
61554;BME280;47425;51.976;5.326;2023-01-31T03:03:51;102209.94;;;14.82;42.89
61554;BME280;47425;51.976;5.326;2023-01-31T03:06:42;102215.28;;;14.77;43.40
61554;BME280;47425;51.976;5.326;2023-01-31T03:09:23;102209.09;;;14.81;43.29
61554;BME280;47425;51.976;5.326;2023-01-31T03:12:07;102215.41;;;14.69;43.29
61554;BME280;47425;51.976;5.326;2023-01-31T03:14:43;102204.06;;;14.63;43.12
61554;BME280;47425;51.976;5.326;2023-01-31T03:17:14;102202.44;;;14.54;43.68
61554;BME280;47425;51.976;5.326;2023-01-31T03:20:02;102191.78;;;14.60;43.80
61554;BME280;47425;51.976;5.326;2023-01-31T03:22:37;102190.75;;;14.70;43.13
61554;BME280;47425;51.976;5.326;2023-01-31T03:25:09;102184.47;;;14.81;43.50
61554;BME280;47425;51.976;5.326;2023-01-31T03:27:45;102180.84;;;14.86;43.04
61554;BME280;47425;51.976;5.326;2023-01-31T03:30:20;102181.69;;;14.88;43.05
61554;BME280;47425;51.976;5.326;2023-01-31T03:32:51;102177.63;;;14.69;43.24
61554;BME280;47425;51.976;5.326;2023-01-31T03:35:23;102179.34;;;14.71;43.31
61554;BME280;47425;51.976;5.326;2023-01-31T03:38:00;102179.34;;;14.71;43.15
61554;BME280;47425;51.976;5.326;2023-01-31T03:40:36;102177.63;;;14.69;43.25
61554;BME280;47425;51.976;5.326;2023-01-31T03:43:12;102170.59;;;14.69;43.53
61554;BME280;47425;51.976;5.326;2023-01-31T03:48:30;102176.75;;;14.68;43.15
61554;BME280;47425;51.976;5.326;2023-01-31T03:51:03;102165.31;;;14.69;43.25
61554;BME280;47425;51.976;5.326;2023-01-31T03:53:50;102156.56;;;14.66;43.41
61554;BME280;47425;51.976;5.326;2023-01-31T03:56:22;102161.94;;;14.58;43.83
61554;BME280;47425;51.976;5.326;2023-01-31T03:58:54;102146.81;;;14.72;43.51
61554;BME280;47425;51.976;5.326;2023-01-31T04:01:27;102152.75;;;14.85;43.30
61554;BME280;47425;51.976;5.326;2023-01-31T04:03:59;102162.44;;;14.83;43.58
61554;BME280;47425;51.976;5.326;2023-01-31T04:06:28;102156.28;;;14.84;43.19
61554;BME280;47425;51.976;5.326;2023-01-31T04:08:58;102153.06;;;14.67;43.25
61554;BME280;47425;51.976;5.326;2023-01-31T04:11:25;102153.09;;;14.65;43.52
61554;BME280;47425;51.976;5.326;2023-01-31T04:13:52;102158.22;;;14.74;43.21
61554;BME280;47425;51.976;5.326;2023-01-31T04:16:20;102145.75;;;14.83;43.27
61554;BME280;47425;51.976;5.326;2023-01-31T04:18:47;102141.63;;;14.66;43.84
61554;BME280;47425;51.976;5.326;2023-01-31T04:21:14;102140.50;;;14.80;43.38
61554;BME280;47425;51.976;5.326;2023-01-31T04:23:41;102136.16;;;14.77;43.54
61554;BME280;47425;51.976;5.326;2023-01-31T04:26:10;102131.72;;;14.81;43.51
61554;BME280;47425;51.976;5.326;2023-01-31T04:28:36;102142.19;;;14.84;42.94
61554;BME280;47425;51.976;5.326;2023-01-31T04:31:03;102147.38;;;14.90;43.36
61554;BME280;47425;51.976;5.326;2023-01-31T04:33:31;102138.63;;;14.86;42.85
61554;BME280;47425;51.976;5.326;2023-01-31T04:35:58;102140.69;;;14.69;43.28
61554;BME280;47425;51.976;5.326;2023-01-31T04:38:25;102134.91;;;14.45;43.57
61554;BME280;47425;51.976;5.326;2023-01-31T04:40:51;102133.16;;;14.44;43.73
61554;BME280;47425;51.976;5.326;2023-01-31T04:43:21;102129.63;;;14.47;44.04
61554;BME280;47425;51.976;5.326;2023-01-31T04:45:47;102122.69;;;14.39;44.24
61554;BME280;47425;51.976;5.326;2023-01-31T04:48:14;102129.56;;;14.50;43.68
61554;BME280;47425;51.976;5.326;2023-01-31T04:50:41;102125.81;;;14.65;43.98
61554;BME280;47425;51.976;5.326;2023-01-31T04:53:09;102126.72;;;14.65;43.62
61554;BME280;47425;51.976;5.326;2023-01-31T04:55:35;102129.34;;;14.64;43.55
61554;BME280;47425;51.976;5.326;2023-01-31T04:58:02;102114.44;;;14.64;43.70
61554;BME280;47425;51.976;5.326;2023-01-31T05:00:31;102108.41;;;14.53;43.27
61554;BME280;47425;51.976;5.326;2023-01-31T05:02:58;102099.72;;;14.49;43.97
61554;BME280;47425;51.976;5.326;2023-01-31T05:05:25;102096.78;;;14.66;43.40
61554;BME280;47425;51.976;5.326;2023-01-31T05:07:52;102107.16;;;14.77;43.42
61554;BME280;47425;51.976;5.326;2023-01-31T05:10:19;102106.25;;;14.78;43.54
61554;BME280;47425;51.976;5.326;2023-01-31T05:12:48;102103.09;;;14.57;43.51
61554;BME280;47425;51.976;5.326;2023-01-31T05:15:15;102097.88;;;14.54;44.13
61554;BME280;47425;51.976;5.326;2023-01-31T05:17:43;102101.22;;;14.66;43.30
61554;BME280;47425;51.976;5.326;2023-01-31T05:20:12;102095.97;;;14.63;43.78
61554;BME280;47425;51.976;5.326;2023-01-31T05:22:38;102086.50;;;14.51;43.92
61554;BME280;47425;51.976;5.326;2023-01-31T05:25:05;102089.19;;;14.46;44.13
61554;BME280;47425;51.976;5.326;2023-01-31T05:27:33;102089.16;;;14.49;43.71
61554;BME280;47425;51.976;5.326;2023-01-31T05:30:00;102087.19;;;14.60;43.65
61554;BME280;47425;51.976;5.326;2023-01-31T05:32:27;102089.91;;;14.57;43.76
61554;BME280;47425;51.976;5.326;2023-01-31T05:34:54;102087.50;;;14.42;43.81
61554;BME280;47425;51.976;5.326;2023-01-31T05:37:22;102060.19;;;14.46;43.97
61554;BME280;47425;51.976;5.326;2023-01-31T05:39:49;102084.38;;;14.73;43.46
61554;BME280;47425;51.976;5.326;2023-01-31T05:42:15;102090.47;;;14.76;43.35
61554;BME280;47425;51.976;5.326;2023-01-31T05:44:42;102095.72;;;14.78;43.01
61554;BME280;47425;51.976;5.326;2023-01-31T05:47:08;102095.69;;;14.81;43.54
61554;BME280;47425;51.976;5.326;2023-01-31T05:49:35;102082.41;;;14.86;43.06
61554;BME280;47425;51.976;5.326;2023-01-31T05:52:03;102094.88;;;14.76;43.66
61554;BME280;47425;51.976;5.326;2023-01-31T05:54:31;102093.34;;;14.63;43.67
61554;BME280;47425;51.976;5.326;2023-01-31T05:56:58;102098.78;;;14.52;43.66
61554;BME280;47425;51.976;5.326;2023-01-31T05:59:40;102097.75;;;14.60;43.89
61554;BME280;47425;51.976;5.326;2023-01-31T06:02:06;102080.81;;;14.75;43.26
61554;BME280;47425;51.976;5.326;2023-01-31T06:04:36;102086.03;;;14.80;43.31
61554;BME280;47425;51.976;5.326;2023-01-31T06:07:04;102082.50;;;14.80;42.95
61554;BME280;47425;51.976;5.326;2023-01-31T06:09:31;102085.28;;;14.72;43.56
61554;BME280;47425;51.976;5.326;2023-01-31T06:11:58;102086.44;;;14.54;43.45
61554;BME280;47425;51.976;5.326;2023-01-31T06:14:25;102073.44;;;14.43;43.89
61554;BME280;47425;51.976;5.326;2023-01-31T06:16:52;102065.44;;;14.49;43.76
61554;BME280;47425;51.976;5.326;2023-01-31T06:19:18;102069.63;;;14.61;43.61
61554;BME280;47425;51.976;5.326;2023-01-31T06:21:50;102058.16;;;14.62;43.45
61554;BME280;47425;51.976;5.326;2023-01-31T06:24:18;102045.78;;;14.69;43.22
61554;BME280;47425;51.976;5.326;2023-01-31T06:26:45;102043.22;;;14.66;43.39
61554;BME280;47425;51.976;5.326;2023-01-31T06:29:12;102045.81;;;14.67;43.79
61554;BME280;47425;51.976;5.326;2023-01-31T06:31:42;102054.63;;;14.68;43.15
61554;BME280;47425;51.976;5.326;2023-01-31T06:34:24;102063.31;;;14.71;43.55
61554;BME280;47425;51.976;5.326;2023-01-31T06:36:51;102049.31;;;14.69;43.25
61554;BME280;47425;51.976;5.326;2023-01-31T06:39:19;102050.00;;;14.79;43.43
61554;BME280;47425;51.976;5.326;2023-01-31T06:41:47;102054.34;;;14.82;43.01
61554;BME280;47425;51.976;5.326;2023-01-31T06:44:13;102055.34;;;14.76;43.42
61554;BME280;47425;51.976;5.326;2023-01-31T06:46:40;102058.91;;;14.73;43.31
61554;BME280;47425;51.976;5.326;2023-01-31T06:49:07;102043.19;;;14.67;43.60
61554;BME280;47425;51.976;5.326;2023-01-31T06:51:34;102032.47;;;14.76;43.34
61554;BME280;47425;51.976;5.326;2023-01-31T06:54:01;102023.41;;;14.90;43.38
61554;BME280;47425;51.976;5.326;2023-01-31T06:56:29;102025.19;;;14.88;42.78
61554;BME280;47425;51.976;5.326;2023-01-31T06:58:56;102022.69;;;14.82;42.97
61554;BME280;47425;51.976;5.326;2023-01-31T07:01:22;102022.56;;;14.89;43.15
61554;BME280;47425;51.976;5.326;2023-01-31T07:03:50;102028.72;;;14.88;42.90
61554;BME280;47425;51.976;5.326;2023-01-31T07:06:17;102017.50;;;14.77;43.03
61554;BME280;47425;51.976;5.326;2023-01-31T07:08:45;102011.91;;;14.46;43.27
61554;BME280;47425;51.976;5.326;2023-01-31T07:11:12;102005.66;;;14.50;43.99
61554;BME280;47425;51.976;5.326;2023-01-31T07:13:41;102003.16;;;14.42;44.22
61554;BME280;47425;51.976;5.326;2023-01-31T07:16:11;101993.28;;;14.55;43.71
61554;BME280;47425;51.976;5.326;2023-01-31T07:18:38;101992.28;;;14.60;43.48
61554;BME280;47425;51.976;5.326;2023-01-31T07:21:06;101987.91;;;14.61;43.42
61554;BME280;47425;51.976;5.326;2023-01-31T07:23:32;101985.41;;;14.53;44.03
61554;BME280;47425;51.976;5.326;2023-01-31T07:26:02;101978.59;;;14.41;44.53
61554;BME280;47425;51.976;5.326;2023-01-31T07:28:28;101988.28;;;14.39;44.42
61554;BME280;47425;51.976;5.326;2023-01-31T07:33:46;101999.72;;;14.40;45.30
61554;BME280;47425;51.976;5.326;2023-01-31T07:36:14;101984.06;;;14.31;45.43
61554;BME280;47425;51.976;5.326;2023-01-31T07:38:44;101993.03;;;14.19;45.89
61554;BME280;47425;51.976;5.326;2023-01-31T07:41:11;101995.81;;;14.09;46.69
61554;BME280;47425;51.976;5.326;2023-01-31T07:43:38;101967.88;;;14.01;46.56
61554;BME280;47425;51.976;5.326;2023-01-31T07:46:08;101986.31;;;13.99;46.71
61554;BME280;47425;51.976;5.326;2023-01-31T07:48:35;101984.66;;;13.93;47.39
61554;BME280;47425;51.976;5.326;2023-01-31T07:51:03;101997.75;;;14.00;47.38
61554;BME280;47425;51.976;5.326;2023-01-31T07:53:32;101979.41;;;13.93;47.27
61554;BME280;47425;51.976;5.326;2023-01-31T07:56:06;101985.22;;;14.13;46.86
61554;BME280;47425;51.976;5.326;2023-01-31T07:58:36;101991.69;;;13.95;47.22
61554;BME280;47425;51.976;5.326;2023-01-31T08:01:03;101987.03;;;14.10;47.65
61554;BME280;47425;51.976;5.326;2023-01-31T08:03:49;101972.88;;;14.16;46.69
61554;BME280;47425;51.976;5.326;2023-01-31T08:06:15;101973.72;;;14.20;47.15
61554;BME280;47425;51.976;5.326;2023-01-31T08:08:44;101976.56;;;14.06;47.77
61554;BME280;47425;51.976;5.326;2023-01-31T08:11:11;101973.16;;;13.99;46.88
61554;BME280;47425;51.976;5.326;2023-01-31T08:13:37;101974.03;;;14.00;47.66
61554;BME280;47425;51.976;5.326;2023-01-31T08:16:06;101971.25;;;14.09;47.44
61554;BME280;47425;51.976;5.326;2023-01-31T08:18:35;101974.81;;;14.06;47.19
61554;BME280;47425;51.976;5.326;2023-01-31T08:21:04;101971.38;;;14.01;47.45
61554;BME280;47425;51.976;5.326;2023-01-31T08:23:31;101964.31;;;14.05;47.21
61554;BME280;47425;51.976;5.326;2023-01-31T08:26:00;101956.13;;;14.20;47.08
61554;BME280;47425;51.976;5.326;2023-01-31T08:28:27;101947.91;;;14.37;46.69
61554;BME280;47425;51.976;5.326;2023-01-31T08:30:54;101947.06;;;14.37;46.28
61554;BME280;47425;51.976;5.326;2023-01-31T08:33:21;101941.00;;;14.32;46.83
61554;BME280;47425;51.976;5.326;2023-01-31T08:36:13;101931.97;;;14.43;46.27
61554;BME280;47425;51.976;5.326;2023-01-31T08:38:43;101925.78;;;14.48;46.61
61554;BME280;47425;51.976;5.326;2023-01-31T08:41:10;101924.81;;;14.52;46.60
61554;BME280;47425;51.976;5.326;2023-01-31T08:43:36;101921.25;;;14.53;46.58
61554;BME280;47425;51.976;5.326;2023-01-31T08:46:05;101914.00;;;14.19;46.36
61554;BME280;47425;51.976;5.326;2023-01-31T08:48:32;101913.28;;;14.10;47.07
61554;BME280;47425;51.976;5.326;2023-01-31T08:50:59;101924.66;;;14.11;46.99
61554;BME280;47425;51.976;5.326;2023-01-31T08:53:27;101921.13;;;14.14;47.14
61554;BME280;47425;51.976;5.326;2023-01-31T08:55:57;101924.47;;;14.22;46.63
61554;BME280;47425;51.976;5.326;2023-01-31T08:58:24;101925.00;;;13.94;47.19
61554;BME280;47425;51.976;5.326;2023-01-31T09:00:50;101932.06;;;13.90;47.85
61554;BME280;47425;51.976;5.326;2023-01-31T09:03:17;101945.03;;;14.01;47.43
61554;BME280;47425;51.976;5.326;2023-01-31T09:05:45;101952.34;;;13.84;46.70
61554;BME280;47425;51.976;5.326;2023-01-31T09:08:11;101946.41;;;13.71;48.05
61554;BME280;47425;51.976;5.326;2023-01-31T09:10:39;101942.50;;;13.97;47.95
61554;BME280;47425;51.976;5.326;2023-01-31T09:13:07;101935.50;;;13.96;47.54
61554;BME280;47425;51.976;5.326;2023-01-31T09:15:34;101942.50;;;13.95;47.81
61554;BME280;47425;51.976;5.326;2023-01-31T09:18:00;101940.56;;;14.06;47.53
61554;BME280;47425;51.976;5.326;2023-01-31T09:20:29;101937.97;;;14.05;47.54
61554;BME280;47425;51.976;5.326;2023-01-31T09:22:57;101940.44;;;14.13;48.09
61554;BME280;47425;51.976;5.326;2023-01-31T09:25:23;101934.81;;;14.34;47.50
61554;BME280;47425;51.976;5.326;2023-01-31T09:27:52;101929.41;;;14.40;47.09
61554;BME280;47425;51.976;5.326;2023-01-31T09:30:19;101898.31;;;14.11;47.40
61554;BME280;47425;51.976;5.326;2023-01-31T09:32:46;101916.53;;;14.25;47.27
61554;BME280;47425;51.976;5.326;2023-01-31T09:35:14;101924.81;;;14.50;47.42
61554;BME280;47425;51.976;5.326;2023-01-31T09:37:41;101918.38;;;14.68;46.42
61554;BME280;47425;51.976;5.326;2023-01-31T09:40:15;101925.50;;;14.62;46.44
61554;BME280;47425;51.976;5.326;2023-01-31T09:42:49;101887.22;;;14.42;46.92
61554;BME280;47425;51.976;5.326;2023-01-31T09:45:26;101901.53;;;14.74;46.74
61554;BME280;47425;51.976;5.326;2023-01-31T09:47:55;101905.16;;;14.70;46.41
61554;BME280;47425;51.976;5.326;2023-01-31T09:50:30;101915.97;;;14.54;46.33
61554;BME280;47425;51.976;5.326;2023-01-31T09:53:00;101920.50;;;14.48;46.82
61554;BME280;47425;51.976;5.326;2023-01-31T09:55:33;101912.59;;;14.48;46.54
61554;BME280;47425;51.976;5.326;2023-01-31T09:58:08;101918.63;;;14.54;46.54
61554;BME280;47425;51.976;5.326;2023-01-31T10:00:49;101924.88;;;14.47;46.47
61554;BME280;47425;51.976;5.326;2023-01-31T10:03:53;101917.91;;;14.44;46.96
61554;BME280;47425;51.976;5.326;2023-01-31T10:06:27;101914.28;;;14.50;46.69
61554;BME280;47425;51.976;5.326;2023-01-31T10:09:01;101929.44;;;14.39;47.04
61554;BME280;47425;51.976;5.326;2023-01-31T10:11:34;101928.69;;;14.32;46.95
61554;BME280;47425;51.976;5.326;2023-01-31T10:14:11;101917.94;;;14.43;46.88
61554;BME280;47425;51.976;5.326;2023-01-31T10:16:44;101921.16;;;14.59;46.47
61554;BME280;47425;51.976;5.326;2023-01-31T10:19:21;101916.94;;;14.49;46.19
61554;BME280;47425;51.976;5.326;2023-01-31T10:21:54;101917.78;;;14.51;46.64
61554;BME280;47425;51.976;5.326;2023-01-31T10:24:26;101912.38;;;14.57;46.12
61554;BME280;47425;51.976;5.326;2023-01-31T10:26:59;101904.25;;;14.71;45.97
61554;BME280;47425;51.976;5.326;2023-01-31T10:29:32;101914.75;;;14.72;46.30
61554;BME280;47425;51.976;5.326;2023-01-31T10:32:05;101899.06;;;14.68;46.34
61554;BME280;47425;51.976;5.326;2023-01-31T10:34:41;101893.22;;;14.49;46.69
61554;BME280;47425;51.976;5.326;2023-01-31T10:37:15;101892.66;;;14.33;46.86
61554;BME280;47425;51.976;5.326;2023-01-31T10:39:49;101899.53;;;14.41;46.79
61554;BME280;47425;51.976;5.326;2023-01-31T10:42:23;101892.69;;;14.31;46.56
61554;BME280;47425;51.976;5.326;2023-01-31T10:44:59;101891.84;;;14.31;47.03
61554;BME280;47425;51.976;5.326;2023-01-31T10:47:32;101888.72;;;14.10;47.70
61554;BME280;47425;51.976;5.326;2023-01-31T10:50:01;101883.25;;;14.21;47.24
61554;BME280;47425;51.976;5.326;2023-01-31T10:52:48;101876.84;;;14.34;47.00
61554;BME280;47425;51.976;5.326;2023-01-31T10:55:47;101871.44;;;14.40;46.85
61554;BME280;47425;51.976;5.326;2023-01-31T10:58:20;101870.34;;;14.51;46.92
61554;BME280;47425;51.976;5.326;2023-01-31T11:00:49;101879.81;;;14.59;46.75
61554;BME280;47425;51.976;5.326;2023-01-31T11:03:17;101878.88;;;14.65;46.49
61554;BME280;47425;51.976;5.326;2023-01-31T11:05:48;101876.34;;;14.59;46.23
61554;BME280;47425;51.976;5.326;2023-01-31T11:08:24;101880.13;;;14.46;46.36
61554;BME280;47425;51.976;5.326;2023-01-31T11:10:54;101874.28;;;14.30;47.28
61554;BME280;47425;51.976;5.326;2023-01-31T11:13:22;101868.59;;;14.50;46.43
61554;BME280;47425;51.976;5.326;2023-01-31T11:15:50;101870.84;;;14.71;46.19
61554;BME280;47425;51.976;5.326;2023-01-31T11:18:28;101878.75;;;14.71;46.19
61554;BME280;47425;51.976;5.326;2023-01-31T11:20:57;101876.28;;;14.60;46.54
61554;BME280;47425;51.976;5.326;2023-01-31T11:23:27;101886.03;;;14.57;46.10
61554;BME280;47425;51.976;5.326;2023-01-31T11:25:55;101873.63;;;14.62;46.51
61554;BME280;47425;51.976;5.326;2023-01-31T11:28:28;101886.47;;;14.35;46.96
61554;BME280;47425;51.976;5.326;2023-01-31T11:30:59;101875.47;;;14.13;47.32
61554;BME280;47425;51.976;5.326;2023-01-31T11:33:42;101867.41;;;14.22;47.49
61554;BME280;47425;51.976;5.326;2023-01-31T11:36:12;101885.75;;;14.27;47.42
61554;BME280;47425;51.976;5.326;2023-01-31T11:38:40;101878.66;;;14.31;47.34
61554;BME280;47425;51.976;5.326;2023-01-31T11:41:29;101878.53;;;13.88;48.36
61554;BME280;47425;51.976;5.326;2023-01-31T11:44:07;101871.66;;;13.81;48.91
61554;BME280;47425;51.976;5.326;2023-01-31T11:46:42;101868.69;;;14.00;48.52
61554;BME280;47425;51.976;5.326;2023-01-31T11:49:13;101856.72;;;13.82;48.73
61554;BME280;47425;51.976;5.326;2023-01-31T11:51:40;101856.75;;;13.80;48.87
61554;BME280;47425;51.976;5.326;2023-01-31T11:54:12;101858.22;;;13.97;49.15
61554;BME280;47425;51.976;5.326;2023-01-31T11:56:43;101849.56;;;13.90;49.24
61554;BME280;47425;51.976;5.326;2023-01-31T11:59:16;101847.00;;;13.85;49.31
61554;BME280;47425;51.976;5.326;2023-01-31T12:01:45;101845.00;;;14.00;49.12
61554;BME280;47425;51.976;5.326;2023-01-31T12:04:18;101845.25;;;13.84;49.11
61554;BME280;47425;51.976;5.326;2023-01-31T12:06:58;101838.75;;;14.05;48.88
61554;BME280;47425;51.976;5.326;2023-01-31T12:09:46;101839.81;;;14.40;48.49
61554;BME280;47425;51.976;5.326;2023-01-31T12:12:26;101841.66;;;14.37;47.91
61554;BME280;47425;51.976;5.326;2023-01-31T12:14:59;101835.28;;;14.47;47.82
61554;BME280;47425;51.976;5.326;2023-01-31T12:17:29;101843.09;;;14.50;47.75
61554;BME280;47425;51.976;5.326;2023-01-31T12:20:17;101833.34;;;14.55;47.16
61554;BME280;47425;51.976;5.326;2023-01-31T12:22:50;101842.13;;;14.56;47.71
61554;BME280;47425;51.976;5.326;2023-01-31T12:25:24;101835.94;;;14.57;48.37
61554;BME280;47425;51.976;5.326;2023-01-31T12:28:05;101832.88;;;14.36;47.92
61554;BME280;47425;51.976;5.326;2023-01-31T12:30:53;101820.06;;;14.18;48.93
61554;BME280;47425;51.976;5.326;2023-01-31T12:33:42;101828.31;;;14.01;49.23
61554;BME280;47425;51.976;5.326;2023-01-31T12:36:36;101820.88;;;13.74;50.27
61554;BME280;47425;51.976;5.326;2023-01-31T12:39:17;101795.91;;;13.47;50.78
61554;BME280;47425;51.976;5.326;2023-01-31T12:42:01;101823.53;;;13.73;50.40
61554;BME280;47425;51.976;5.326;2023-01-31T12:44:44;101824.69;;;13.58;51.19
61554;BME280;47425;51.976;5.326;2023-01-31T12:47:27;101810.59;;;13.61;50.90
61554;BME280;47425;51.976;5.326;2023-01-31T12:50:04;101812.09;;;13.75;49.97
61554;BME280;47425;51.976;5.326;2023-01-31T12:52:46;101810.59;;;14.09;49.44
61554;BME280;47425;51.976;5.326;2023-01-31T12:55:22;101805.66;;;14.36;48.32
61554;BME280;47425;51.976;5.326;2023-01-31T12:58:04;101808.03;;;14.48;48.89
61554;BME280;47425;51.976;5.326;2023-01-31T13:00:53;101799.72;;;14.24;49.01
61554;BME280;47425;51.976;5.326;2023-01-31T13:03:42;101795.78;;;14.03;49.75
61554;BME280;47425;51.976;5.326;2023-01-31T13:06:17;101807.81;;;14.17;48.91
61554;BME280;47425;51.976;5.326;2023-01-31T13:08:52;101802.91;;;14.40;49.39
61554;BME280;47425;51.976;5.326;2023-01-31T13:11:27;101806.63;;;14.32;48.80
61554;BME280;47425;51.976;5.326;2023-01-31T13:14:00;101794.66;;;14.14;49.24
61554;BME280;47425;51.976;5.326;2023-01-31T13:16:30;101796.38;;;14.16;49.47
61554;BME280;47425;51.976;5.326;2023-01-31T13:19:03;101781.97;;;14.34;48.74
61554;BME280;47425;51.976;5.326;2023-01-31T13:21:33;101777.84;;;14.63;48.45